sensor_id;sensor_type;location;lat;lon;timestamp;P1;durP1;ratioP1;P2;durP2;ratioP2
16737;SDS011;17906;47.684;10.806;2024-01-15T00:00:10;2.13;;;0.80;;
16737;SDS011;17906;47.684;10.806;2024-01-15T00:02:37;3.23;;;0.83;;
16737;SDS011;17906;47.684;10.806;2024-01-15T00:05:05;1.07;;;0.70;;
16737;SDS011;17906;47.684;10.806;2024-01-15T00:07:32;0.80;;;0.50;;
16737;SDS011;17906;47.684;10.806;2024-01-15T00:09:58;1.00;;;0.40;;
16737;SDS011;17906;47.684;10.806;2024-01-15T00:12:25;1.30;;;0.60;;
16737;SDS011;17906;47.684;10.806;2024-01-15T00:14:51;1.20;;;0.57;;
16737;SDS011;17906;47.684;10.806;2024-01-15T00:17:18;1.23;;;0.50;;
16737;SDS011;17906;47.684;10.806;2024-01-15T00:19:46;2.33;;;0.70;;
16737;SDS011;17906;47.684;10.806;2024-01-15T00:22:14;1.40;;;0.57;;
16737;SDS011;17906;47.684;10.806;2024-01-15T00:24:41;1.80;;;0.47;;
16737;SDS011;17906;47.684;10.806;2024-01-15T00:27:07;0.90;;;0.50;;
16737;SDS011;17906;47.684;10.806;2024-01-15T00:29:34;0.60;;;0.40;;
16737;SDS011;17906;47.684;10.806;2024-01-15T00:32:00;1.83;;;0.50;;
16737;SDS011;17906;47.684;10.806;2024-01-15T00:34:27;0.80;;;0.60;;
16737;SDS011;17906;47.684;10.806;2024-01-15T00:36:54;1.80;;;0.90;;
16737;SDS011;17906;47.684;10.806;2024-01-15T00:39:21;2.30;;;0.60;;
16737;SDS011;17906;47.684;10.806;2024-01-15T00:41:49;1.33;;;0.67;;
16737;SDS011;17906;47.684;10.806;2024-01-15T00:44:15;1.60;;;0.80;;
16737;SDS011;17906;47.684;10.806;2024-01-15T00:46:42;1.87;;;0.67;;
16737;SDS011;17906;47.684;10.806;2024-01-15T00:49:10;1.77;;;0.70;;
16737;SDS011;17906;47.684;10.806;2024-01-15T00:51:36;1.27;;;0.70;;
16737;SDS011;17906;47.684;10.806;2024-01-15T00:54:03;2.63;;;0.80;;
16737;SDS011;17906;47.684;10.806;2024-01-15T00:56:31;1.80;;;0.83;;
16737;SDS011;17906;47.684;10.806;2024-01-15T00:58:57;1.67;;;0.83;;
16737;SDS011;17906;47.684;10.806;2024-01-15T01:01:24;1.40;;;0.70;;
16737;SDS011;17906;47.684;10.806;2024-01-15T01:03:51;3.10;;;1.00;;
16737;SDS011;17906;47.684;10.806;2024-01-15T01:06:17;0.80;;;0.60;;
16737;SDS011;17906;47.684;10.806;2024-01-15T01:08:44;1.40;;;0.90;;
16737;SDS011;17906;47.684;10.806;2024-01-15T01:11:12;2.20;;;0.90;;
16737;SDS011;17906;47.684;10.806;2024-01-15T01:13:40;2.43;;;1.00;;
16737;SDS011;17906;47.684;10.806;2024-01-15T01:16:07;3.77;;;1.10;;
16737;SDS011;17906;47.684;10.806;2024-01-15T01:18:33;2.13;;;1.00;;
16737;SDS011;17906;47.684;10.806;2024-01-15T01:21:01;2.40;;;1.00;;
16737;SDS011;17906;47.684;10.806;2024-01-15T01:23:27;1.77;;;1.20;;
16737;SDS011;17906;47.684;10.806;2024-01-15T01:25:54;2.43;;;1.33;;
16737;SDS011;17906;47.684;10.806;2024-01-15T01:28:21;4.17;;;1.20;;
16737;SDS011;17906;47.684;10.806;2024-01-15T01:30:48;3.03;;;1.47;;
16737;SDS011;17906;47.684;10.806;2024-01-15T01:33:15;3.07;;;1.33;;
16737;SDS011;17906;47.684;10.806;2024-01-15T01:35:42;2.00;;;1.30;;
16737;SDS011;17906;47.684;10.806;2024-01-15T01:38:08;2.97;;;1.50;;
16737;SDS011;17906;47.684;10.806;2024-01-15T01:40:36;6.00;;;1.90;;
16737;SDS011;17906;47.684;10.806;2024-01-15T01:43:02;2.77;;;1.73;;
16737;SDS011;17906;47.684;10.806;2024-01-15T01:45:29;3.00;;;1.63;;
16737;SDS011;17906;47.684;10.806;2024-01-15T01:47:57;3.07;;;1.80;;
16737;SDS011;17906;47.684;10.806;2024-01-15T01:50:24;2.70;;;1.53;;
16737;SDS011;17906;47.684;10.806;2024-01-15T01:52:50;2.93;;;2.00;;
16737;SDS011;17906;47.684;10.806;2024-01-15T01:55:18;3.50;;;1.83;;
16737;SDS011;17906;47.684;10.806;2024-01-15T01:57:46;2.67;;;1.80;;
16737;SDS011;17906;47.684;10.806;2024-01-15T02:00:13;2.70;;;1.50;;
16737;SDS011;17906;47.684;10.806;2024-01-15T02:02:41;4.67;;;2.00;;
16737;SDS011;17906;47.684;10.806;2024-01-15T02:05:10;6.30;;;2.50;;
16737;SDS011;17906;47.684;10.806;2024-01-15T02:07:38;5.10;;;2.50;;
16737;SDS011;17906;47.684;10.806;2024-01-15T02:10:05;4.87;;;2.33;;
16737;SDS011;17906;47.684;10.806;2024-01-15T02:12:32;6.03;;;2.87;;
16737;SDS011;17906;47.684;10.806;2024-01-15T02:14:59;10.17;;;3.57;;
16737;SDS011;17906;47.684;10.806;2024-01-15T02:17:26;6.57;;;3.47;;
16737;SDS011;17906;47.684;10.806;2024-01-15T02:19:52;6.73;;;3.13;;
16737;SDS011;17906;47.684;10.806;2024-01-15T02:22:20;7.13;;;3.50;;
16737;SDS011;17906;47.684;10.806;2024-01-15T02:24:48;6.80;;;3.03;;
16737;SDS011;17906;47.684;10.806;2024-01-15T02:27:15;6.87;;;3.63;;
16737;SDS011;17906;47.684;10.806;2024-01-15T02:29:42;7.47;;;3.40;;
16737;SDS011;17906;47.684;10.806;2024-01-15T02:32:09;8.60;;;3.93;;
16737;SDS011;17906;47.684;10.806;2024-01-15T02:34:35;6.93;;;3.37;;
16737;SDS011;17906;47.684;10.806;2024-01-15T02:37:02;9.03;;;3.70;;
16737;SDS011;17906;47.684;10.806;2024-01-15T02:39:29;9.97;;;4.07;;
16737;SDS011;17906;47.684;10.806;2024-01-15T02:41:57;7.17;;;3.83;;
16737;SDS011;17906;47.684;10.806;2024-01-15T02:44:23;9.90;;;3.60;;
16737;SDS011;17906;47.684;10.806;2024-01-15T02:46:50;8.93;;;4.00;;
16737;SDS011;17906;47.684;10.806;2024-01-15T02:49:16;10.40;;;4.07;;
16737;SDS011;17906;47.684;10.806;2024-01-15T02:51:43;8.03;;;3.80;;
16737;SDS011;17906;47.684;10.806;2024-01-15T02:54:11;8.30;;;4.03;;
16737;SDS011;17906;47.684;10.806;2024-01-15T02:56:37;7.63;;;3.50;;
16737;SDS011;17906;47.684;10.806;2024-01-15T02:59:05;9.20;;;3.97;;
16737;SDS011;17906;47.684;10.806;2024-01-15T03:01:32;7.57;;;3.70;;
16737;SDS011;17906;47.684;10.806;2024-01-15T03:03:59;9.63;;;4.37;;
16737;SDS011;17906;47.684;10.806;2024-01-15T03:06:25;8.20;;;4.37;;
16737;SDS011;17906;47.684;10.806;2024-01-15T03:08:52;9.87;;;4.17;;
16737;SDS011;17906;47.684;10.806;2024-01-15T03:11:19;7.90;;;4.17;;
16737;SDS011;17906;47.684;10.806;2024-01-15T03:13:45;8.13;;;3.60;;
16737;SDS011;17906;47.684;10.806;2024-01-15T03:16:13;8.57;;;3.37;;
16737;SDS011;17906;47.684;10.806;2024-01-15T03:18:40;7.27;;;3.20;;
16737;SDS011;17906;47.684;10.806;2024-01-15T03:21:06;7.90;;;3.20;;
16737;SDS011;17906;47.684;10.806;2024-01-15T03:23:33;7.03;;;3.23;;
16737;SDS011;17906;47.684;10.806;2024-01-15T03:26:00;9.53;;;3.90;;
16737;SDS011;17906;47.684;10.806;2024-01-15T03:28:26;9.93;;;3.90;;
16737;SDS011;17906;47.684;10.806;2024-01-15T03:30:55;8.30;;;3.53;;
16737;SDS011;17906;47.684;10.806;2024-01-15T03:33:23;7.83;;;3.60;;
16737;SDS011;17906;47.684;10.806;2024-01-15T03:35:50;10.23;;;4.53;;
16737;SDS011;17906;47.684;10.806;2024-01-15T03:38:16;9.80;;;4.57;;
16737;SDS011;17906;47.684;10.806;2024-01-15T03:40:43;9.90;;;4.17;;
16737;SDS011;17906;47.684;10.806;2024-01-15T03:43:09;13.27;;;5.10;;
16737;SDS011;17906;47.684;10.806;2024-01-15T03:45:36;12.37;;;4.90;;
16737;SDS011;17906;47.684;10.806;2024-01-15T03:48:03;10.13;;;4.63;;
16737;SDS011;17906;47.684;10.806;2024-01-15T03:50:31;11.20;;;4.97;;
16737;SDS011;17906;47.684;10.806;2024-01-15T03:52:58;12.30;;;4.57;;
16737;SDS011;17906;47.684;10.806;2024-01-15T03:55:24;11.63;;;4.73;;
16737;SDS011;17906;47.684;10.806;2024-01-15T03:57:51;11.93;;;4.37;;
16737;SDS011;17906;47.684;10.806;2024-01-15T04:00:18;10.40;;;5.10;;
16737;SDS011;17906;47.684;10.806;2024-01-15T04:02:45;11.93;;;5.00;;
16737;SDS011;17906;47.684;10.806;2024-01-15T04:05:11;12.67;;;5.33;;
16737;SDS011;17906;47.684;10.806;2024-01-15T04:07:39;11.90;;;5.30;;
16737;SDS011;17906;47.684;10.806;2024-01-15T04:10:06;11.33;;;5.00;;
16737;SDS011;17906;47.684;10.806;2024-01-15T04:12:33;11.73;;;5.07;;
16737;SDS011;17906;47.684;10.806;2024-01-15T04:14:59;13.77;;;5.13;;
16737;SDS011;17906;47.684;10.806;2024-01-15T04:17:26;12.57;;;4.90;;
16737;SDS011;17906;47.684;10.806;2024-01-15T04:19:53;11.93;;;4.57;;
16737;SDS011;17906;47.684;10.806;2024-01-15T04:22:20;10.67;;;4.93;;
16737;SDS011;17906;47.684;10.806;2024-01-15T04:24:48;10.70;;;5.17;;
16737;SDS011;17906;47.684;10.806;2024-01-15T04:27:14;11.07;;;4.87;;
16737;SDS011;17906;47.684;10.806;2024-01-15T04:29:41;10.33;;;4.70;;
16737;SDS011;17906;47.684;10.806;2024-01-15T04:32:09;10.90;;;4.30;;
16737;SDS011;17906;47.684;10.806;2024-01-15T04:34:36;11.80;;;5.03;;
16737;SDS011;17906;47.684;10.806;2024-01-15T04:37:02;12.10;;;4.77;;
16737;SDS011;17906;47.684;10.806;2024-01-15T04:39:29;12.97;;;4.90;;
16737;SDS011;17906;47.684;10.806;2024-01-15T04:41:57;10.13;;;4.57;;
16737;SDS011;17906;47.684;10.806;2024-01-15T04:44:24;10.00;;;3.83;;
16737;SDS011;17906;47.684;10.806;2024-01-15T04:46:50;12.40;;;4.80;;
16737;SDS011;17906;47.684;10.806;2024-01-15T04:49:17;12.20;;;4.50;;
16737;SDS011;17906;47.684;10.806;2024-01-15T04:51:43;9.77;;;4.07;;
16737;SDS011;17906;47.684;10.806;2024-01-15T04:54:10;12.07;;;4.30;;
16737;SDS011;17906;47.684;10.806;2024-01-15T04:56:36;12.43;;;4.40;;
16737;SDS011;17906;47.684;10.806;2024-01-15T04:59:05;10.67;;;3.53;;
16737;SDS011;17906;47.684;10.806;2024-01-15T05:01:31;10.17;;;4.07;;
16737;SDS011;17906;47.684;10.806;2024-01-15T05:03:58;8.40;;;3.87;;
16737;SDS011;17906;47.684;10.806;2024-01-15T05:06:25;11.03;;;3.80;;
16737;SDS011;17906;47.684;10.806;2024-01-15T05:08:51;10.17;;;3.97;;
16737;SDS011;17906;47.684;10.806;2024-01-15T05:11:19;7.73;;;3.30;;
16737;SDS011;17906;47.684;10.806;2024-01-15T05:13:46;7.73;;;3.20;;
16737;SDS011;17906;47.684;10.806;2024-01-15T05:16:14;7.20;;;2.73;;
16737;SDS011;17906;47.684;10.806;2024-01-15T05:18:41;9.60;;;3.17;;
16737;SDS011;17906;47.684;10.806;2024-01-15T05:21:08;6.83;;;2.70;;
16737;SDS011;17906;47.684;10.806;2024-01-15T05:23:35;9.53;;;3.57;;
16737;SDS011;17906;47.684;10.806;2024-01-15T05:26:01;6.30;;;2.87;;
16737;SDS011;17906;47.684;10.806;2024-01-15T05:28:28;8.37;;;3.27;;
16737;SDS011;17906;47.684;10.806;2024-01-15T05:30:55;8.87;;;3.70;;
16737;SDS011;17906;47.684;10.806;2024-01-15T05:33:23;7.17;;;2.83;;
16737;SDS011;17906;47.684;10.806;2024-01-15T05:35:50;7.60;;;3.13;;
16737;SDS011;17906;47.684;10.806;2024-01-15T05:38:17;7.23;;;2.83;;
16737;SDS011;17906;47.684;10.806;2024-01-15T05:40:43;6.30;;;3.13;;
16737;SDS011;17906;47.684;10.806;2024-01-15T05:43:10;7.87;;;3.43;;
16737;SDS011;17906;47.684;10.806;2024-01-15T05:45:37;8.07;;;3.70;;
16737;SDS011;17906;47.684;10.806;2024-01-15T05:48:04;6.57;;;2.70;;
16737;SDS011;17906;47.684;10.806;2024-01-15T05:50:32;6.17;;;2.80;;
16737;SDS011;17906;47.684;10.806;2024-01-15T05:52:59;6.90;;;3.50;;
16737;SDS011;17906;47.684;10.806;2024-01-15T05:55:25;6.97;;;2.83;;
16737;SDS011;17906;47.684;10.806;2024-01-15T05:57:52;7.90;;;2.80;;
16737;SDS011;17906;47.684;10.806;2024-01-15T06:00:19;7.37;;;2.93;;
16737;SDS011;17906;47.684;10.806;2024-01-15T06:02:45;7.33;;;3.10;;
16737;SDS011;17906;47.684;10.806;2024-01-15T06:05:12;8.97;;;3.30;;
16737;SDS011;17906;47.684;10.806;2024-01-15T06:07:41;8.57;;;3.67;;
16737;SDS011;17906;47.684;10.806;2024-01-15T06:10:08;9.90;;;3.77;;
16737;SDS011;17906;47.684;10.806;2024-01-15T06:12:34;8.40;;;3.40;;
16737;SDS011;17906;47.684;10.806;2024-01-15T06:15:01;8.40;;;3.47;;
16737;SDS011;17906;47.684;10.806;2024-01-15T06:17:28;9.77;;;3.20;;
16737;SDS011;17906;47.684;10.806;2024-01-15T06:19:55;9.83;;;4.13;;
16737;SDS011;17906;47.684;10.806;2024-01-15T06:22:22;15.07;;;4.43;;
16737;SDS011;17906;47.684;10.806;2024-01-15T06:24:50;10.07;;;3.83;;
16737;SDS011;17906;47.684;10.806;2024-01-15T06:27:16;9.27;;;3.97;;
16737;SDS011;17906;47.684;10.806;2024-01-15T06:29:44;8.90;;;4.03;;
16737;SDS011;17906;47.684;10.806;2024-01-15T06:32:12;9.10;;;3.63;;
16737;SDS011;17906;47.684;10.806;2024-01-15T06:34:38;9.23;;;3.77;;
16737;SDS011;17906;47.684;10.806;2024-01-15T06:37:05;9.30;;;4.50;;
16737;SDS011;17906;47.684;10.806;2024-01-15T06:39:31;10.37;;;4.27;;
16737;SDS011;17906;47.684;10.806;2024-01-15T06:42:00;10.83;;;4.03;;
16737;SDS011;17906;47.684;10.806;2024-01-15T06:44:26;10.33;;;4.20;;
16737;SDS011;17906;47.684;10.806;2024-01-15T06:46:53;10.70;;;4.90;;
16737;SDS011;17906;47.684;10.806;2024-01-15T06:49:22;13.10;;;5.07;;
16737;SDS011;17906;47.684;10.806;2024-01-15T06:51:49;10.67;;;4.57;;
16737;SDS011;17906;47.684;10.806;2024-01-15T06:54:15;10.47;;;4.67;;
16737;SDS011;17906;47.684;10.806;2024-01-15T06:56:42;9.87;;;4.13;;
16737;SDS011;17906;47.684;10.806;2024-01-15T06:59:10;11.00;;;4.57;;
16737;SDS011;17906;47.684;10.806;2024-01-15T07:01:36;10.80;;;4.70;;
16737;SDS011;17906;47.684;10.806;2024-01-15T07:04:03;13.17;;;4.53;;
16737;SDS011;17906;47.684;10.806;2024-01-15T07:06:30;12.30;;;4.87;;
16737;SDS011;17906;47.684;10.806;2024-01-15T07:08:56;9.60;;;4.37;;
16737;SDS011;17906;47.684;10.806;2024-01-15T07:11:23;13.67;;;4.60;;
16737;SDS011;17906;47.684;10.806;2024-01-15T07:13:49;11.47;;;4.10;;
16737;SDS011;17906;47.684;10.806;2024-01-15T07:16:17;11.90;;;4.70;;
16737;SDS011;17906;47.684;10.806;2024-01-15T07:18:44;10.10;;;4.30;;
16737;SDS011;17906;47.684;10.806;2024-01-15T07:21:11;9.87;;;4.27;;
16737;SDS011;17906;47.684;10.806;2024-01-15T07:23:37;10.13;;;4.17;;
16737;SDS011;17906;47.684;10.806;2024-01-15T07:26:04;8.97;;;4.17;;
16737;SDS011;17906;47.684;10.806;2024-01-15T07:28:31;12.13;;;5.13;;
16737;SDS011;17906;47.684;10.806;2024-01-15T07:30:57;12.37;;;4.67;;
16737;SDS011;17906;47.684;10.806;2024-01-15T07:33:25;13.10;;;4.57;;
16737;SDS011;17906;47.684;10.806;2024-01-15T07:35:52;7.63;;;4.00;;
16737;SDS011;17906;47.684;10.806;2024-01-15T07:38:18;11.50;;;4.23;;
16737;SDS011;17906;47.684;10.806;2024-01-15T07:40:45;8.43;;;3.87;;
16737;SDS011;17906;47.684;10.806;2024-01-15T07:43:14;10.93;;;3.70;;
16737;SDS011;17906;47.684;10.806;2024-01-15T07:45:40;10.47;;;3.47;;
16737;SDS011;17906;47.684;10.806;2024-01-15T07:48:07;7.20;;;2.70;;
16737;SDS011;17906;47.684;10.806;2024-01-15T07:50:36;7.37;;;3.30;;
16737;SDS011;17906;47.684;10.806;2024-01-15T07:53:02;6.33;;;3.00;;
16737;SDS011;17906;47.684;10.806;2024-01-15T07:55:30;8.33;;;2.73;;
16737;SDS011;17906;47.684;10.806;2024-01-15T07:57:56;8.43;;;3.23;;
16737;SDS011;17906;47.684;10.806;2024-01-15T08:00:24;6.10;;;2.67;;
16737;SDS011;17906;47.684;10.806;2024-01-15T08:02:51;7.33;;;3.00;;
16737;SDS011;17906;47.684;10.806;2024-01-15T08:05:18;6.17;;;2.70;;
16737;SDS011;17906;47.684;10.806;2024-01-15T08:07:47;7.47;;;2.80;;
16737;SDS011;17906;47.684;10.806;2024-01-15T08:10:14;6.57;;;2.47;;
16737;SDS011;17906;47.684;10.806;2024-01-15T08:12:40;7.57;;;2.67;;
16737;SDS011;17906;47.684;10.806;2024-01-15T08:15:07;5.43;;;2.43;;
16737;SDS011;17906;47.684;10.806;2024-01-15T08:17:34;4.97;;;2.17;;
16737;SDS011;17906;47.684;10.806;2024-01-15T08:20:00;7.57;;;2.83;;
16737;SDS011;17906;47.684;10.806;2024-01-15T08:22:28;3.93;;;2.00;;
16737;SDS011;17906;47.684;10.806;2024-01-15T08:24:56;4.60;;;2.17;;
16737;SDS011;17906;47.684;10.806;2024-01-15T08:27:22;5.80;;;2.60;;
16737;SDS011;17906;47.684;10.806;2024-01-15T08:29:49;6.20;;;1.80;;
16737;SDS011;17906;47.684;10.806;2024-01-15T08:32:16;5.00;;;2.10;;
16737;SDS011;17906;47.684;10.806;2024-01-15T08:34:43;4.10;;;1.87;;
16737;SDS011;17906;47.684;10.806;2024-01-15T08:37:11;3.53;;;1.70;;
16737;SDS011;17906;47.684;10.806;2024-01-15T08:39:38;3.93;;;1.40;;
16737;SDS011;17906;47.684;10.806;2024-01-15T08:42:06;5.13;;;1.83;;
16737;SDS011;17906;47.684;10.806;2024-01-15T08:44:32;3.70;;;1.60;;
16737;SDS011;17906;47.684;10.806;2024-01-15T08:46:59;3.97;;;1.90;;
16737;SDS011;17906;47.684;10.806;2024-01-15T08:49:26;4.30;;;1.73;;
16737;SDS011;17906;47.684;10.806;2024-01-15T08:51:52;4.50;;;1.77;;
16737;SDS011;17906;47.684;10.806;2024-01-15T08:54:19;3.57;;;1.60;;
16737;SDS011;17906;47.684;10.806;2024-01-15T08:56:45;3.17;;;1.40;;
16737;SDS011;17906;47.684;10.806;2024-01-15T08:59:13;3.27;;;1.40;;
16737;SDS011;17906;47.684;10.806;2024-01-15T09:01:41;3.50;;;1.53;;
16737;SDS011;17906;47.684;10.806;2024-01-15T09:04:07;3.80;;;1.67;;
16737;SDS011;17906;47.684;10.806;2024-01-15T09:06:34;2.97;;;1.57;;
16737;SDS011;17906;47.684;10.806;2024-01-15T09:09:01;3.33;;;1.53;;
16737;SDS011;17906;47.684;10.806;2024-01-15T09:11:27;3.87;;;1.60;;
16737;SDS011;17906;47.684;10.806;2024-01-15T09:13:54;2.47;;;1.10;;
16737;SDS011;17906;47.684;10.806;2024-01-15T09:16:22;2.43;;;1.30;;
16737;SDS011;17906;47.684;10.806;2024-01-15T09:18:48;4.23;;;1.67;;
16737;SDS011;17906;47.684;10.806;2024-01-15T09:21:15;6.57;;;2.20;;
16737;SDS011;17906;47.684;10.806;2024-01-15T09:23:42;3.43;;;1.67;;
16737;SDS011;17906;47.684;10.806;2024-01-15T09:26:08;2.83;;;1.73;;
16737;SDS011;17906;47.684;10.806;2024-01-15T09:28:35;5.37;;;1.67;;
16737;SDS011;17906;47.684;10.806;2024-01-15T09:31:01;3.93;;;1.40;;
16737;SDS011;17906;47.684;10.806;2024-01-15T09:33:29;4.90;;;1.50;;
16737;SDS011;17906;47.684;10.806;2024-01-15T09:35:56;3.13;;;1.10;;
16737;SDS011;17906;47.684;10.806;2024-01-15T09:38:23;2.87;;;1.50;;
16737;SDS011;17906;47.684;10.806;2024-01-15T09:40:49;3.70;;;1.60;;
16737;SDS011;17906;47.684;10.806;2024-01-15T09:43:17;3.50;;;1.27;;
16737;SDS011;17906;47.684;10.806;2024-01-15T09:45:45;3.50;;;1.10;;
16737;SDS011;17906;47.684;10.806;2024-01-15T09:48:12;6.13;;;1.40;;
16737;SDS011;17906;47.684;10.806;2024-01-15T09:50:40;3.00;;;1.27;;
16737;SDS011;17906;47.684;10.806;2024-01-15T09:53:07;4.13;;;1.63;;
16737;SDS011;17906;47.684;10.806;2024-01-15T09:55:35;4.20;;;1.50;;
16737;SDS011;17906;47.684;10.806;2024-01-15T09:58:02;2.33;;;1.23;;
16737;SDS011;17906;47.684;10.806;2024-01-15T10:00:30;4.40;;;1.40;;
16737;SDS011;17906;47.684;10.806;2024-01-15T10:02:56;2.03;;;1.17;;
16737;SDS011;17906;47.684;10.806;2024-01-15T10:05:25;4.77;;;1.00;;
16737;SDS011;17906;47.684;10.806;2024-01-15T10:07:54;2.77;;;1.27;;
16737;SDS011;17906;47.684;10.806;2024-01-15T10:10:22;3.00;;;1.20;;
16737;SDS011;17906;47.684;10.806;2024-01-15T10:12:49;2.33;;;1.03;;
16737;SDS011;17906;47.684;10.806;2024-01-15T10:15:16;2.47;;;1.20;;
16737;SDS011;17906;47.684;10.806;2024-01-15T10:17:42;1.37;;;0.90;;
16737;SDS011;17906;47.684;10.806;2024-01-15T10:20:09;1.57;;;1.10;;
16737;SDS011;17906;47.684;10.806;2024-01-15T10:22:39;2.07;;;0.97;;
16737;SDS011;17906;47.684;10.806;2024-01-15T10:25:10;2.80;;;1.10;;
16737;SDS011;17906;47.684;10.806;2024-01-15T10:27:37;1.83;;;0.83;;
16737;SDS011;17906;47.684;10.806;2024-01-15T10:30:05;3.27;;;1.30;;
16737;SDS011;17906;47.684;10.806;2024-01-15T10:32:33;2.47;;;0.97;;
16737;SDS011;17906;47.684;10.806;2024-01-15T10:34:59;2.30;;;1.03;;
16737;SDS011;17906;47.684;10.806;2024-01-15T10:37:26;2.20;;;1.00;;
16737;SDS011;17906;47.684;10.806;2024-01-15T10:39:52;3.87;;;1.03;;
16737;SDS011;17906;47.684;10.806;2024-01-15T10:42:20;2.20;;;1.00;;
16737;SDS011;17906;47.684;10.806;2024-01-15T10:44:47;1.90;;;1.10;;
16737;SDS011;17906;47.684;10.806;2024-01-15T10:47:13;2.00;;;0.80;;
16737;SDS011;17906;47.684;10.806;2024-01-15T10:49:41;2.83;;;1.20;;
16737;SDS011;17906;47.684;10.806;2024-01-15T10:52:08;1.43;;;1.03;;
16737;SDS011;17906;47.684;10.806;2024-01-15T10:54:34;3.30;;;1.40;;
16737;SDS011;17906;47.684;10.806;2024-01-15T10:57:03;2.53;;;0.90;;
16737;SDS011;17906;47.684;10.806;2024-01-15T10:59:32;2.50;;;1.13;;
16737;SDS011;17906;47.684;10.806;2024-01-15T11:01:59;2.80;;;1.40;;
16737;SDS011;17906;47.684;10.806;2024-01-15T11:04:25;1.97;;;0.90;;
16737;SDS011;17906;47.684;10.806;2024-01-15T11:06:53;2.20;;;1.10;;
16737;SDS011;17906;47.684;10.806;2024-01-15T11:09:22;2.37;;;1.00;;
16737;SDS011;17906;47.684;10.806;2024-01-15T11:11:53;3.37;;;1.10;;
16737;SDS011;17906;47.684;10.806;2024-01-15T11:14:34;2.23;;;1.07;;
16737;SDS011;17906;47.684;10.806;2024-01-15T11:17:01;3.13;;;1.13;;
16737;SDS011;17906;47.684;10.806;2024-01-15T11:19:35;7.13;;;1.43;;
16737;SDS011;17906;47.684;10.806;2024-01-15T11:22:03;2.00;;;1.00;;
16737;SDS011;17906;47.684;10.806;2024-01-15T11:24:34;2.43;;;1.20;;
16737;SDS011;17906;47.684;10.806;2024-01-15T11:27:02;1.87;;;1.00;;
16737;SDS011;17906;47.684;10.806;2024-01-15T11:29:30;2.00;;;1.20;;
16737;SDS011;17906;47.684;10.806;2024-01-15T11:32:00;2.33;;;1.10;;
16737;SDS011;17906;47.684;10.806;2024-01-15T11:37:23;2.10;;;1.03;;
16737;SDS011;17906;47.684;10.806;2024-01-15T11:39:53;6.33;;;1.20;;
16737;SDS011;17906;47.684;10.806;2024-01-15T11:42:21;3.30;;;0.97;;
16737;SDS011;17906;47.684;10.806;2024-01-15T11:44:49;1.70;;;0.80;;
16737;SDS011;17906;47.684;10.806;2024-01-15T11:47:20;2.57;;;1.00;;
16737;SDS011;17906;47.684;10.806;2024-01-15T11:50:07;2.77;;;1.50;;
16737;SDS011;17906;47.684;10.806;2024-01-15T11:52:35;2.17;;;1.30;;
16737;SDS011;17906;47.684;10.806;2024-01-15T11:55:12;2.00;;;0.90;;
16737;SDS011;17906;47.684;10.806;2024-01-15T11:57:45;1.80;;;0.90;;
16737;SDS011;17906;47.684;10.806;2024-01-15T12:00:13;3.27;;;0.80;;
16737;SDS011;17906;47.684;10.806;2024-01-15T12:02:42;4.33;;;1.37;;
16737;SDS011;17906;47.684;10.806;2024-01-15T12:05:10;4.17;;;1.83;;
16737;SDS011;17906;47.684;10.806;2024-01-15T12:07:38;3.70;;;1.70;;
16737;SDS011;17906;47.684;10.806;2024-01-15T12:10:08;3.07;;;1.10;;
16737;SDS011;17906;47.684;10.806;2024-01-15T12:12:37;1.33;;;0.90;;
16737;SDS011;17906;47.684;10.806;2024-01-15T12:15:11;1.23;;;0.63;;
16737;SDS011;17906;47.684;10.806;2024-01-15T12:17:38;2.37;;;1.03;;
16737;SDS011;17906;47.684;10.806;2024-01-15T12:20:07;2.50;;;1.00;;
16737;SDS011;17906;47.684;10.806;2024-01-15T12:22:34;2.37;;;1.00;;
16737;SDS011;17906;47.684;10.806;2024-01-15T12:25:01;2.47;;;0.80;;
16737;SDS011;17906;47.684;10.806;2024-01-15T12:27:27;3.37;;;1.43;;
16737;SDS011;17906;47.684;10.806;2024-01-15T12:29:54;1.87;;;0.97;;
16737;SDS011;17906;47.684;10.806;2024-01-15T12:32:21;2.57;;;0.90;;
16737;SDS011;17906;47.684;10.806;2024-01-15T12:34:48;2.03;;;0.70;;
16737;SDS011;17906;47.684;10.806;2024-01-15T12:37:17;1.57;;;0.87;;
16737;SDS011;17906;47.684;10.806;2024-01-15T12:39:44;1.87;;;0.90;;
16737;SDS011;17906;47.684;10.806;2024-01-15T12:42:10;1.03;;;0.70;;
16737;SDS011;17906;47.684;10.806;2024-01-15T12:44:37;1.57;;;0.73;;
16737;SDS011;17906;47.684;10.806;2024-01-15T12:47:04;1.40;;;0.60;;
16737;SDS011;17906;47.684;10.806;2024-01-15T12:49:31;1.37;;;0.70;;
16737;SDS011;17906;47.684;10.806;2024-01-15T12:51:57;1.30;;;0.80;;
16737;SDS011;17906;47.684;10.806;2024-01-15T12:54:26;2.93;;;1.00;;
16737;SDS011;17906;47.684;10.806;2024-01-15T12:56:52;1.93;;;0.90;;
16737;SDS011;17906;47.684;10.806;2024-01-15T12:59:19;1.50;;;0.70;;
16737;SDS011;17906;47.684;10.806;2024-01-15T13:01:46;1.17;;;0.80;;
16737;SDS011;17906;47.684;10.806;2024-01-15T13:04:20;3.57;;;0.70;;
16737;SDS011;17906;47.684;10.806;2024-01-15T13:06:48;3.73;;;1.00;;
16737;SDS011;17906;47.684;10.806;2024-01-15T13:09:15;4.83;;;1.50;;
16737;SDS011;17906;47.684;10.806;2024-01-15T13:11:43;2.73;;;1.47;;
16737;SDS011;17906;47.684;10.806;2024-01-15T13:14:10;3.80;;;1.10;;
16737;SDS011;17906;47.684;10.806;2024-01-15T13:16:38;4.30;;;1.10;;
16737;SDS011;17906;47.684;10.806;2024-01-15T13:19:06;1.53;;;0.80;;
16737;SDS011;17906;47.684;10.806;2024-01-15T13:21:33;1.80;;;1.07;;
16737;SDS011;17906;47.684;10.806;2024-01-15T13:23:59;0.97;;;0.73;;
16737;SDS011;17906;47.684;10.806;2024-01-15T13:26:27;2.17;;;1.10;;
16737;SDS011;17906;47.684;10.806;2024-01-15T13:28:55;1.93;;;0.87;;
16737;SDS011;17906;47.684;10.806;2024-01-15T13:31:21;2.03;;;0.90;;
16737;SDS011;17906;47.684;10.806;2024-01-15T13:33:48;2.63;;;0.90;;
16737;SDS011;17906;47.684;10.806;2024-01-15T13:36:14;1.50;;;0.73;;
16737;SDS011;17906;47.684;10.806;2024-01-15T13:38:41;3.53;;;0.80;;
16737;SDS011;17906;47.684;10.806;2024-01-15T13:41:07;2.60;;;0.80;;
16737;SDS011;17906;47.684;10.806;2024-01-15T13:43:34;1.27;;;0.67;;
16737;SDS011;17906;47.684;10.806;2024-01-15T13:46:02;2.40;;;0.73;;
16737;SDS011;17906;47.684;10.806;2024-01-15T13:48:30;1.30;;;0.80;;
16737;SDS011;17906;47.684;10.806;2024-01-15T13:50:57;1.30;;;0.67;;
16737;SDS011;17906;47.684;10.806;2024-01-15T13:53:24;1.73;;;0.80;;
16737;SDS011;17906;47.684;10.806;2024-01-15T13:55:50;1.83;;;0.87;;
16737;SDS011;17906;47.684;10.806;2024-01-15T13:58:17;1.43;;;0.70;;
16737;SDS011;17906;47.684;10.806;2024-01-15T14:00:44;1.67;;;0.70;;
16737;SDS011;17906;47.684;10.806;2024-01-15T14:03:11;1.97;;;0.77;;
16737;SDS011;17906;47.684;10.806;2024-01-15T14:05:38;2.00;;;0.73;;
16737;SDS011;17906;47.684;10.806;2024-01-15T14:08:05;1.27;;;0.80;;
16737;SDS011;17906;47.684;10.806;2024-01-15T14:10:32;1.93;;;0.70;;
16737;SDS011;17906;47.684;10.806;2024-01-15T14:12:59;5.33;;;1.97;;
16737;SDS011;17906;47.684;10.806;2024-01-15T14:15:26;3.73;;;1.03;;
16737;SDS011;17906;47.684;10.806;2024-01-15T14:17:53;1.30;;;0.70;;
16737;SDS011;17906;47.684;10.806;2024-01-15T14:20:21;2.33;;;1.10;;
16737;SDS011;17906;47.684;10.806;2024-01-15T14:22:47;2.27;;;0.83;;
16737;SDS011;17906;47.684;10.806;2024-01-15T14:25:14;2.20;;;1.17;;
16737;SDS011;17906;47.684;10.806;2024-01-15T14:27:41;5.40;;;2.27;;
16737;SDS011;17906;47.684;10.806;2024-01-15T14:30:08;3.50;;;1.60;;
16737;SDS011;17906;47.684;10.806;2024-01-15T14:32:35;5.47;;;2.10;;
16737;SDS011;17906;47.684;10.806;2024-01-15T14:35:01;6.60;;;1.63;;